Time;durP1;ratioP1;P1;durP2;ratioP2;P2;SDS_P1;SDS_P2;PMS_P1;PMS_P2;Temp;Humidity;BMP_temperature;BMP_pressure;BME280_temperature;BME280_humidity;BME280_pressure;Samples;Min_cycle;Max_cycle;Signal;HPM_P1;HPM_P2
2022/12/27 00:02:06;;;;;;;9.35;5.67;;;;;;;8.64;100.00;97990.26;1750261;82;20943;-80
2022/12/27 00:04:33;;;;;;;12.13;5.92;;;;;;;8.64;100.00;97982.70;1750041;82;20983;-80
2022/12/27 00:07:00;;;;;;;17.37;8.65;;;;;;;8.65;100.00;97983.77;1750298;82;20976;-79
2022/12/27 00:09:27;;;;;;;14.90;7.72;;;;;;;8.62;100.00;97977.54;1750111;82;21448;-79
2022/12/27 00:11:54;;;;;;;9.35;5.80;;;;;;;8.67;100.00;97998.36;1750329;82;21035;-80
2022/12/27 00:14:21;;;;;;;13.13;7.28;;;;;;;8.58;100.00;97972.95;1749882;82;20984;-80
2022/12/27 00:16:47;;;;;;;8.55;4.75;;;;;;;8.67;100.00;97988.91;1750216;82;21038;-80
2022/12/27 00:19:14;;;;;;;13.75;7.42;;;;;;;8.69;100.00;97988.90;1750304;82;20999;-79
2022/12/27 00:21:41;;;;;;;15.45;7.58;;;;;;;8.69;100.00;97988.90;1750001;82;21050;-80
2022/12/27 00:24:09;;;;;;;12.43;6.62;;;;;;;8.65;100.00;97982.42;1750240;82;21397;-80
2022/12/27 00:26:37;;;;;;;10.10;5.47;;;;;;;8.65;100.00;97974.86;1750085;82;21011;-80
2022/12/27 00:29:04;;;;;;;7.65;4.95;;;;;;;8.63;100.00;97971.08;1750159;82;21038;-79
2022/12/27 00:31:31;;;;;;;7.62;4.72;;;;;;;8.61;100.00;97972.41;1750105;82;21030;-79
2022/12/27 00:34:01;;;;;;;14.18;5.15;;;;;;;8.63;100.00;97971.08;1750231;82;20984;-79
2022/12/27 00:36:29;;;;;;;8.25;5.60;;;;;;;8.63;100.00;97971.08;1750006;82;21021;-79
2022/12/27 00:38:57;;;;;;;12.20;5.28;;;;;;;8.65;100.00;97964.05;1750400;82;20967;-80
2022/12/27 00:41:24;;;;;;;8.25;5.00;;;;;;;8.62;100.00;97963.22;1758846;80;21542;-79
2022/12/27 00:43:51;;;;;;;9.53;5.53;;;;;;;8.56;100.00;97954.32;1781074;80;20984;-79
2022/12/27 00:46:18;;;;;;;8.08;5.05;;;;;;;8.56;100.00;97954.32;1781116;80;21046;-79
2022/12/27 00:48:45;;;;;;;5.90;4.35;;;;;;;8.60;100.00;97958.09;1781240;80;21200;-80
2022/12/27 00:51:17;;;;;;;7.30;5.00;;;;;;;8.60;100.00;97959.45;1780927;80;20949;-80
2022/12/27 00:53:44;;;;;;;6.70;4.42;;;;;;;8.62;100.00;97960.52;1781074;80;21031;-79
2022/12/27 00:56:21;;;;;;;6.28;4.60;;;;;;;8.56;100.00;97958.91;1755006;80;21027;-80
2022/12/27 00:58:56;;;;;;;6.70;3.27;;;;;;;8.56;100.00;97965.13;1734564;82;21011;-80
2022/12/27 01:01:25;;;;;;;6.92;4.85;;;;;;;8.49;100.00;97964.56;1734446;82;21137;-79
2022/12/27 01:03:52;;;;;;;6.75;4.40;;;;;;;8.49;100.00;97964.56;1734547;82;21003;-79
2022/12/27 01:06:21;;;;;;;6.05;3.67;;;;;;;8.45;100.00;97964.27;1734319;82;21003;-78
2022/12/27 01:08:48;;;;;;;8.88;4.87;;;;;;;8.45;100.00;97953.47;1734541;82;21054;-80
2022/12/27 01:11:16;;;;;;;7.20;4.35;;;;;;;8.37;100.00;97956.69;1734574;82;20984;-80
2022/12/27 01:13:43;;;;;;;6.40;4.03;;;;;;;8.32;100.00;97945.06;1734413;82;21948;-79
2022/12/27 01:16:17;;;;;;;8.60;4.30;;;;;;;8.32;100.00;97945.06;1734525;82;20987;-79
2022/12/27 01:18:44;;;;;;;7.97;4.50;;;;;;;8.26;100.00;97937.48;1734166;82;21054;-80
2022/12/27 01:21:13;;;;;;;11.33;6.00;;;;;;;8.28;100.00;97936.66;1734429;82;21019;-80
2022/12/27 01:23:40;;;;;;;11.28;6.35;;;;;;;8.28;100.00;97936.66;1734449;82;21038;-80
2022/12/27 01:26:12;;;;;;;10.35;5.00;;;;;;;8.24;100.00;97940.98;1734478;81;21148;-79
2022/12/27 01:28:39;;;;;;;10.18;6.10;;;;;;;8.20;100.00;97931.27;1733965;82;21043;-80
2022/12/27 01:31:13;;;;;;;8.75;4.95;;;;;;;8.20;100.00;97931.27;1734546;82;20979;-79
2022/12/27 01:33:40;;;;;;;8.10;4.45;;;;;;;8.17;100.00;97926.93;1734304;82;21028;-79
2022/12/27 01:36:12;;;;;;;9.20;5.28;;;;;;;8.18;100.00;97927.20;1734348;82;21089;-78
2022/12/27 01:38:41;;;;;;;9.40;5.00;;;;;;;8.18;100.00;97931.25;1734175;82;21071;-80
2022/12/27 01:43:58;;;;;;;6.95;3.90;;;;;;;8.23;100.00;97913.73;1746528;82;21461;-80
2022/12/27 01:46:24;;;;;;;7.47;4.70;;;;;;;8.23;100.00;97913.73;1777413;80;21001;-79
2022/12/27 01:48:51;;;;;;;7.05;4.92;;;;;;;8.15;100.00;97906.14;1746681;81;21501;-80
2022/12/27 01:51:18;;;;;;;5.97;3.17;;;;;;;8.19;100.00;97912.08;1746497;82;21118;-80
2022/12/27 01:53:47;;;;;;;5.83;4.00;;;;;;;8.26;100.00;97924.52;1746549;81;21422;-80
2022/12/27 01:56:27;;;;;;;6.75;3.52;;;;;;;8.20;100.00;97917.78;1750380;81;21453;-80
2022/12/27 01:58:59;;;;;;;5.15;2.85;;;;;;;8.28;100.00;97923.16;1773582;80;21003;-80
2022/12/27 02:01:30;;;;;;;5.45;3.15;;;;;;;8.29;100.00;97915.37;1772353;80;20961;-80
2022/12/27 02:04:19;;;;;;;4.25;2.83;;;;;;;8.28;100.00;97917.77;1773511;80;21074;-80
2022/12/27 02:06:46;;;;;;;4.87;3.70;;;;;;;8.31;100.00;97921.30;1773493;80;21005;-79
2022/12/27 02:09:39;;;;;;;6.83;4.87;;;;;;;8.28;100.00;97919.12;1773671;80;21327;-80
2022/12/27 02:12:07;;;;;;;8.45;4.72;;;;;;;8.27;100.00;97921.55;1762402;81;21429;-79
2022/12/27 02:14:41;;;;;;;6.45;3.17;;;;;;;8.24;100.00;97922.09;1773388;80;21047;-80
2022/12/27 02:17:16;;;;;;;3.90;2.47;;;;;;;8.26;100.00;97933.43;1746738;81;21020;-78
2022/12/27 02:20:06;;;;;;;4.22;2.42;;;;;;;8.24;100.00;97932.89;1773634;80;21029;-79
2022/12/27 02:26:14;;;;;;;8.53;2.22;;;;;;;8.20;100.00;97941.23;1773723;80;20985;-80
2022/12/27 02:28:46;;;;;;;4.28;2.25;;;;;;;8.20;100.00;97935.33;1772170;80;20996;-79
2022/12/27 02:31:21;;;;;;;4.75;3.40;;;;;;;8.18;100.00;97925.84;1773617;80;21389;-79
2022/12/27 02:33:48;;;;;;;4.70;2.55;;;;;;;8.25;100.00;97934.51;1745005;81;21441;-80
2022/12/27 02:36:23;;;;;;;3.40;2.42;;;;;;;8.23;100.00;97939.91;1773522;80;21040;-80
2022/12/27 02:38:52;;;;;;;3.72;2.52;;;;;;;8.20;100.00;97919.64;1773441;80;21036;-78
2022/12/27 02:53:03;;;;;;;4.92;2.60;;;;;;;8.11;100.00;97932.03;1761971;81;20992;-79
2022/12/27 02:59:09;;;;;;;5.00;2.45;;;;;;;8.07;100.00;97960.10;1762034;81;21833;-80
2022/12/27 03:04:44;;;;;;;5.45;3.22;;;;;;;8.08;100.00;97975.21;1762005;81;21413;-79
2022/12/27 03:07:22;;;;;;;4.87;2.57;;;;;;;8.11;100.00;97980.07;1762322;81;21028;-80
2022/12/27 03:16:07;;;;;;;4.45;3.00;;;;;;;8.17;100.00;97993.87;1761940;81;21421;-80
2022/12/27 03:18:57;;;;;;;4.33;3.22;;;;;;;8.20;100.00;97981.72;1761939;81;21031;-80
2022/12/27 03:27:27;;;;;;;4.97;3.52;;;;;;;8.20;100.00;97981.21;1762044;81;20941;-80
2022/12/27 03:33:11;;;;;;;43.15;13.72;;;;;;;8.12;100.00;97999.80;1761871;81;21035;-80
2022/12/27 03:35:16;;;;;;;5.37;2.90;;;;;;;8.12;100.00;97999.80;1757653;81;21398;-80
2022/12/27 03:38:04;;;;;;;3.60;2.62;;;;;;;8.17;100.00;98020.05;1761910;81;21530;-79
2022/12/27 03:43:34;;;;;;;7.12;3.90;;;;;;;8.18;100.00;98021.13;1762000;81;20980;-79
2022/12/27 03:46:32;;;;;;;4.25;3.00;;;;;;;8.20;100.00;98025.75;1762322;81;21007;-80
2022/12/27 03:49:37;;;;;;;3.42;2.00;;;;;;;8.17;100.00;98026.26;1762049;81;20952;-80
2022/12/27 03:52:24;;;;;;;3.45;3.02;;;;;;;8.11;100.00;98034.05;1762176;81;21068;-79
2022/12/27 03:54:51;;;;;;;2.90;2.08;;;;;;;8.09;100.00;98038.91;1762077;81;21192;-80
2022/12/27 03:57:20;;;;;;;3.55;2.33;;;;;;;8.10;100.00;98040.53;1761955;81;21503;-79
2022/12/27 03:59:47;;;;;;;3.30;2.40;;;;;;;8.07;100.00;98048.34;1731848;81;21275;-80
2022/12/27 04:02:14;;;;;;;3.12;1.22;;;;;;;8.04;100.00;98051.58;1761899;81;21006;-79
2022/12/27 04:04:41;;;;;;;3.40;1.75;;;;;;;8.01;100.00;98066.93;1761892;81;21011;-80
2022/12/27 04:07:10;;;;;;;2.12;1.60;;;;;;;8.02;100.00;98071.25;1762009;81;21035;-80
2022/12/27 04:37:16;;;;;;;1.98;1.60;;;;;;;7.98;100.00;98086.35;1761912;81;21040;-79
2022/12/27 04:54:55;;;;;;;1.52;1.40;;;;;;;7.97;100.00;98086.08;1761788;81;21452;-80
2022/12/27 04:56:05;;;;;;;2.72;1.85;;;;;;;7.59;100.00;98079.87;1747552;81;21000;-79
2022/12/27 04:58:32;;;;;;;4.20;1.30;;;;;;;7.52;100.00;98084.17;1761969;81;21460;-79
2022/12/27 05:03:49;;;;;;;3.25;2.35;;;;;;;7.46;100.00;98097.86;1762142;81;21008;-80
2022/12/27 05:06:16;;;;;;;3.70;2.50;;;;;;;7.39;100.00;98107.50;1762607;81;20992;-80
2022/12/27 05:14:14;;;;;;;1.60;1.15;;;;;;;7.10;100.00;98224.20;1762047;81;21042;-79
2022/12/27 05:16:42;;;;;;;3.12;1.30;;;;;;;6.04;100.00;98256.66;1731832;81;21007;-79
2022/12/27 05:19:11;;;;;;;2.72;1.30;;;;;;;5.28;100.00;98256.08;1762747;81;20996;-78
2022/12/27 05:25:33;;;;;;;9.13;5.22;;;;;;;4.82;100.00;98258.39;1762296;81;21602;-79
2022/12/27 05:26:55;;;;;;;3.83;2.72;;;;;;;4.63;100.00;98287.78;1762280;81;21049;-78
2022/12/27 05:29:22;;;;;;;7.10;2.50;;;;;;;4.55;100.00;98282.24;1762010;81;21010;-80
2022/12/27 05:31:49;;;;;;;9.28;4.87;;;;;;;4.52;100.00;98284.03;1732009;81;20992;-80
2022/12/27 05:34:16;;;;;;;10.98;5.75;;;;;;;4.49;100.00;98286.67;1763492;81;20964;-78
2022/12/27 05:36:43;;;;;;;14.58;6.03;;;;;;;4.50;100.00;98286.95;1763895;81;20980;-78
2022/12/27 05:39:10;;;;;;;9.00;4.65;;;;;;;4.56;100.00;98286.55;1763709;81;21032;-80
2022/12/27 05:41:37;;;;;;;5.30;2.50;;;;;;;4.56;100.00;98289.23;1759830;81;21046;-78
2022/12/27 05:44:04;;;;;;;2.10;1.22;;;;;;;4.59;100.00;98285.27;1752380;81;21454;-80
2022/12/27 05:46:31;;;;;;;1.77;1.30;;;;;;;4.56;100.00;98289.77;1752564;81;20959;-80
2022/12/27 05:48:58;;;;;;;3.42;1.80;;;;;;;4.57;100.00;98293.55;1752669;81;20978;-78
2022/12/27 05:51:25;;;;;;;8.05;4.10;;;;;;;4.56;100.00;98296.48;1752647;81;21882;-80
2022/12/27 05:53:52;;;;;;;6.78;2.60;;;;;;;4.59;100.00;98300.84;1752407;81;21029;-80
2022/12/27 05:56:19;;;;;;;10.15;5.10;;;;;;;4.63;100.00;98304.70;1752647;81;21009;-80
2022/12/27 05:58:46;;;;;;;10.28;5.92;;;;;;;4.66;100.00;98314.14;1724572;81;20967;-78
2022/12/27 06:01:15;;;;;;;5.78;3.72;;;;;;;4.65;100.00;98320.57;1745921;81;21016;-78
2022/12/27 06:03:42;;;;;;;;;;;;;;;4.64;100.00;98331.02;1758447;81;21601;-78
2022/12/27 06:06:09;;;;;;;8.13;4.33;;;;;;;4.60;100.00;98327.97;1752722;81;20127;-80
2022/12/27 06:08:36;;;;;;;8.93;5.05;;;;;;;4.64;100.00;98332.36;1746744;81;21019;-78
2022/12/27 06:11:07;;;;;;;7.47;4.72;;;;;;;4.67;100.00;98342.62;1750240;82;20995;-78
2022/12/27 06:13:35;;;;;;;6.08;4.30;;;;;;;4.61;100.00;98340.86;1731833;81;21000;-78
2022/12/27 06:16:03;;;;;;;3.77;2.50;;;;;;;4.63;100.00;98354.89;1732136;82;21161;-78
2022/12/27 06:18:31;;;;;;;2.58;1.55;;;;;;;4.64;100.00;98355.18;1755337;81;21024;-78
2022/12/27 06:21:07;;;;;;;1.45;1.15;;;;;;;4.63;100.00;98358.39;1762579;80;21049;-78
2022/12/27 06:23:35;;;;;;;2.27;1.20;;;;;;;4.67;100.00;98365.44;1762802;80;21005;-77
2022/12/27 06:26:07;;;;;;;2.22;1.42;;;;;;;4.63;100.00;98358.39;1760444;80;21400;-78
2022/12/27 06:28:34;;;;;;;2.25;1.52;;;;;;;4.63;100.00;98366.44;1744957;80;39041;-78
2022/12/27 06:31:01;;;;;;;2.27;1.30;;;;;;;4.63;100.00;98373.68;1731590;82;22042;-80
2022/12/27 06:33:28;;;;;;;5.92;3.72;;;;;;;4.60;100.00;98375.47;1731675;82;21055;-78
2022/12/27 06:35:55;;;;;;;6.55;3.10;;;;;;;4.57;100.00;98394.20;1761541;81;20999;-78
2022/12/27 06:38:22;;;;;;;2.47;0.98;;;;;;;4.60;100.00;98403.65;1761766;81;21054;-80
2022/12/27 06:40:49;;;;;;;3.27;2.33;;;;;;;4.55;100.00;98408.91;1761226;81;21170;-80
2022/12/27 06:43:16;;;;;;;8.03;5.53;;;;;;;4.56;100.00;98423.44;1731573;82;21000;-78
2022/12/27 06:45:43;;;;;;;3.02;2.10;;;;;;;4.52;100.00;98441.03;1731854;82;21036;-78
2022/12/27 06:48:10;;;;;;;2.22;1.72;;;;;;;4.46;100.00;98459.42;1773267;80;20964;-80
2022/12/27 06:50:37;;;;;;;2.05;1.20;;;;;;;4.44;100.00;98470.88;1766397;80;21417;-78
2022/12/27 06:53:04;;;;;;;4.22;1.65;;;;;;;4.41;100.00;98473.52;1731434;82;21036;-78
2022/12/27 06:55:31;;;;;;;7.15;3.75;;;;;;;4.32;100.00;98496.34;1732743;81;21439;-78
2022/12/27 06:57:58;;;;;;;7.30;3.72;;;;;;;4.30;100.00;98502.99;1764999;80;21080;-78
2022/12/27 07:00:24;;;;;;;2.15;1.22;;;;;;;4.25;100.00;98492.41;1738566;80;21609;-80
2022/12/27 07:02:51;;;;;;;3.35;2.05;;;;;;;4.24;100.00;98499.34;1735180;80;21078;-80
2022/12/27 07:05:18;;;;;;;4.92;2.08;;;;;;;4.24;100.00;98512.23;1750525;81;21633;-78
2022/12/27 07:07:45;;;;;;;2.20;1.80;;;;;;;4.27;100.00;98520.34;1735394;80;21068;-78
2022/12/27 07:10:12;;;;;;;1.92;1.12;;;;;;;4.22;100.00;98539.82;1762141;81;21007;-78
2022/12/27 07:12:39;;;;;;;2.42;1.27;;;;;;;4.20;100.00;98544.59;1759708;81;20999;-80
2022/12/27 07:15:07;;;;;;;2.80;2.05;;;;;;;4.19;100.00;98544.30;1786987;79;20993;-80
2022/12/27 07:17:35;;;;;;;12.83;7.97;;;;;;;4.22;100.00;98557.78;1756136;80;21124;-80
2022/12/27 07:20:04;;;;;;;6.15;3.33;;;;;;;4.18;100.00;98561.41;1749552;79;21035;-78
2022/12/27 07:22:30;;;;;;;;;;;;;;;4.24;100.00;98568.57;1742188;80;21015;-80
2022/12/27 07:24:57;;;;;;;6.05;3.15;;;;;;;4.24;100.00;98571.78;1714043;81;20890;-78
2022/12/27 07:27:24;;;;;;;6.72;4.03;;;;;;;4.19;100.00;98573.00;1764409;81;21011;-78
2022/12/27 07:29:51;;;;;;;4.40;2.05;;;;;;;4.18;100.00;98572.67;1764398;79;21421;-80
2022/12/27 07:32:18;;;;;;;1.85;1.30;;;;;;;4.12;100.00;98573.06;1757077;81;21019;-80
2022/12/27 07:34:45;;;;;;;1.30;0.90;;;;;;;4.08;100.00;98573.20;1754110;79;21078;-80
2022/12/27 07:37:12;;;;;;;1.35;0.90;;;;;;;4.06;100.00;98590.58;1758946;79;20999;-79
2022/12/27 07:39:39;;;;;;;1.50;1.05;;;;;;;4.09;100.00;98594.14;1757917;79;21004;-80
2022/12/27 07:42:06;;;;;;;7.95;3.75;;;;;;;4.12;100.00;98605.78;1745003;79;21057;-78
2022/12/27 07:44:33;;;;;;;4.55;1.82;;;;;;;4.12;100.00;98606.59;1754970;79;21506;-78
2022/12/27 07:47:00;;;;;;;2.40;1.92;;;;;;;4.16;100.00;98603.75;1746987;79;21039;-80
2022/12/27 07:49:27;;;;;;;4.37;2.60;;;;;;;4.07;100.00;98625.20;1736177;79;21035;-78
2022/12/27 07:51:54;;;;;;;4.70;2.80;;;;;;;4.02;100.00;98626.94;1751132;81;21274;-80
2022/12/27 07:54:21;;;;;;;7.42;3.92;;;;;;;4.00;100.00;98631.69;1758955;81;21436;-80
2022/12/27 07:56:48;;;;;;;6.28;5.47;;;;;;;4.00;100.00;98626.31;1749700;81;21379;-77
2022/12/27 07:59:15;;;;;;;15.85;11.88;;;;;;;4.03;100.00;98632.08;1746091;80;21090;-80
2022/12/27 08:04:27;;;;;;;4.42;3.30;;;;;;;4.06;100.00;98637.50;1753326;80;21021;-78
2022/12/27 08:06:59;;;;;;;9.43;3.90;;;;;;;4.03;100.00;98639.30;1746915;79;21840;-78
2022/12/27 08:09:29;;;;;;;6.42;3.55;;;;;;;4.03;100.00;98640.64;1750424;80;21058;-80
2022/12/27 08:11:56;;;;;;;10.75;6.95;;;;;;;4.07;100.00;98653.89;1740889;81;21048;-80
2022/12/27 08:14:23;;;;;;;8.53;3.90;;;;;;;4.15;100.00;98657.10;1752367;79;21023;-78
2022/12/27 08:16:50;;;;;;;8.20;5.87;;;;;;;4.12;100.00;98668.29;1741608;81;21142;-80
2022/12/27 08:19:17;;;;;;;8.53;3.35;;;;;;;4.20;100.00;98679.25;1750663;80;21503;-80
2022/12/27 08:21:44;;;;;;;7.58;3.75;;;;;;;4.18;100.00;98685.34;1753050;79;21000;-77
2022/12/27 08:24:11;;;;;;;6.70;3.00;;;;;;;4.17;100.00;98687.72;1754096;79;21024;-80
2022/12/27 08:26:38;;;;;;;8.88;5.15;;;;;;;4.20;100.00;98688.12;1760890;79;20995;-80
2022/12/27 08:29:04;;;;;;;6.50;2.75;;;;;;;4.23;100.00;98686.32;1752449;80;21452;-77
2022/12/27 08:31:31;;;;;;;10.80;3.87;;;;;;;4.19;100.00;98696.39;1774306;80;21144;-78
2022/12/27 08:33:58;;;;;;;13.58;5.92;;;;;;;4.18;100.00;98699.56;1750451;80;21022;-80
2022/12/27 08:36:25;;;;;;;13.48;4.35;;;;;;;4.21;100.00;98703.69;1770917;80;21056;-80
2022/12/27 08:38:54;;;;;;;13.48;5.00;;;;;;;4.23;100.00;98702.94;1767995;79;23098;-77
2022/12/27 08:41:21;;;;;;;16.65;4.90;;;;;;;4.26;100.00;98705.17;1757345;79;20984;-80
2022/12/27 08:43:48;;;;;;;23.05;9.30;;;;;;;4.29;100.00;98710.63;1729889;82;21141;-80
2022/12/27 08:46:15;;;;;;;35.08;11.38;;;;;;;4.31;100.00;98716.06;1740183;80;21632;-81
2022/12/27 08:48:42;;;;;;;12.78;5.03;;;;;;;4.31;100.00;98721.44;1743991;80;22008;-77
2022/12/27 08:51:08;;;;;;;11.70;4.70;;;;;;;4.34;100.00;98720.98;1742013;81;21019;-80
2022/12/27 08:53:35;;;;;;;9.15;4.97;;;;;;;4.35;100.00;98727.16;1740214;81;21487;-80
2022/12/27 08:56:03;;;;;;;14.13;4.17;;;;;;;4.33;100.00;98719.86;1746204;81;21409;-78
2022/12/27 08:58:30;;;;;;;6.70;3.67;;;;;;;4.32;100.00;98737.83;1749931;80;21533;-78
2022/12/27 09:01:06;;;;;;;6.55;3.15;;;;;;;4.27;100.00;98740.86;1744495;80;20967;-80
2022/12/27 09:03:33;;;;;;;10.25;3.08;;;;;;;4.25;100.00;98743.25;1770044;79;21020;-80
2022/12/27 09:06:17;;;;;;;10.58;3.62;;;;;;;4.31;100.00;98741.55;1740280;80;21021;-80
2022/12/27 09:08:46;;;;;;;7.28;4.37;;;;;;;4.26;100.00;98740.05;1748397;81;21019;-78
2022/12/27 09:11:19;;;;;;;13.20;5.03;;;;;;;4.26;100.00;98732.00;1783890;80;21001;-77
2022/12/27 09:13:46;;;;;;;10.50;5.25;;;;;;;4.30;100.00;98739.92;1748226;80;21274;-78
2022/12/27 09:16:20;;;;;;;10.25;4.17;;;;;;;4.37;100.00;98751.41;1758506;80;21538;-78
2022/12/27 09:18:50;;;;;;;7.00;4.00;;;;;;;4.44;100.00;98756.20;1770136;80;21420;-78
2022/12/27 09:21:17;;;;;;;5.70;2.70;;;;;;;4.42;100.00;98774.36;1749359;80;21663;-78
2022/12/27 09:23:45;;;;;;;5.10;2.47;;;;;;;4.40;99.49;98754.16;1740944;80;21058;-78
2022/12/27 09:26:14;;;;;;;9.50;2.65;;;;;;;4.37;98.64;98767.52;1744922;81;21016;-78
2022/12/27 09:28:41;;;;;;;10.00;4.25;;;;;;;4.30;97.58;98778.00;1743570;80;21158;-78
2022/12/27 09:31:09;;;;;;;11.12;5.12;;;;;;;4.24;97.50;98777.83;1741792;81;21492;-78
2022/12/27 09:33:36;;;;;;;10.68;4.17;;;;;;;4.27;97.98;98777.91;1739276;81;21010;-78
2022/12/27 09:36:09;;;;;;;10.40;3.85;;;;;;;4.28;98.45;98776.07;1721461;81;21094;-80
2022/12/27 09:38:36;;;;;;;22.62;8.05;;;;;;;4.29;99.08;98775.84;1747323;79;21554;-78
2022/12/27 09:41:07;;;;;;;9.60;4.00;;;;;;;4.37;98.61;98776.09;1754841;80;21111;-78
2022/12/27 09:43:47;;;;;;;14.80;8.60;;;;;;;4.34;98.59;98782.70;1687867;81;20980;-78
2022/12/27 09:46:18;;;;;;;19.40;9.43;;;;;;;4.33;98.41;98785.08;1743597;80;21631;-77
2022/12/27 09:48:45;;;;;;;14.98;6.17;;;;;;;4.34;97.95;98781.87;1760783;80;21098;-78
2022/12/27 09:51:17;;;;;;;10.03;3.87;;;;;;;4.24;97.91;98784.54;1739102;80;21038;-78
2022/12/27 09:54:13;;;;;;;13.32;4.97;;;;;;;4.17;96.83;98785.11;1720873;81;21012;-80
2022/12/27 09:56:40;;;;;;;8.58;3.30;;;;;;;4.10;96.68;98783.03;1754935;80;21622;-80
2022/12/27 09:59:25;;;;;;;4.58;2.35;;;;;;;4.13;97.23;98768.36;1741322;79;21106;-80
2022/12/27 10:01:52;;;;;;;7.35;2.83;;;;;;;4.07;96.56;98774.06;1740227;81;21125;-80
2022/12/27 10:04:19;;;;;;;9.65;4.87;;;;;;;4.05;96.82;98782.04;1739115;80;20936;-80
2022/12/27 10:06:54;;;;;;;8.73;4.72;;;;;;;4.00;95.99;98773.30;1741768;80;21000;-78
2022/12/27 10:10:04;;;;;;;12.25;4.67;;;;;;;4.07;96.85;98789.34;1748834;79;21487;-81
2022/12/27 10:12:51;;;;;;;90.00;39.50;;;;;;;4.05;93.99;98786.88;1755548;79;21168;-80
2022/12/27 10:15:45;;;;;;;9.80;4.42;;;;;;;4.13;95.64;98779.08;1748194;80;21988;-80
2022/12/27 10:18:43;;;;;;;7.90;2.62;;;;;;;4.24;96.14;98781.86;1749977;80;21078;-78
2022/12/27 10:21:20;;;;;;;10.63;2.40;;;;;;;4.27;95.09;98791.84;1743487;81;21015;-80
2022/12/27 10:24:04;;;;;;;4.85;2.60;;;;;;;4.34;94.68;98788.06;1751589;81;21031;-78
2022/12/27 10:26:31;;;;;;;11.97;3.35;;;;;;;4.43;95.93;98796.13;1744817;80;22392;-78
2022/12/27 10:29:20;;;;;;;6.83;3.05;;;;;;;4.43;94.92;98797.98;1748079;80;21055;-80
2022/12/27 10:31:47;;;;;;;6.85;4.22;;;;;;;4.41;94.22;98797.40;1741717;79;20972;-80
2022/12/27 10:34:16;;;;;;;8.45;2.85;;;;;;;4.46;94.06;98790.86;1747738;80;20995;-78
2022/12/27 10:36:43;;;;;;;8.30;2.67;;;;;;;4.45;94.04;98786.53;1753953;80;21562;-80
2022/12/27 10:39:20;;;;;;;5.53;2.85;;;;;;;4.46;94.27;98788.17;1753020;79;21009;-78
2022/12/27 10:42:24;;;;;;;8.23;4.65;;;;;;;4.47;92.69;98785.78;1749622;79;21510;-78
2022/12/27 10:44:52;;;;;;;9.45;2.95;;;;;;;4.55;94.37;98781.47;1758489;81;21117;-78
2022/12/27 10:47:19;;;;;;;8.05;3.00;;;;;;;4.59;94.75;98781.31;1696047;82;21054;-78
2022/12/27 10:50:02;;;;;;;7.67;2.77;;;;;;;4.64;92.38;98787.38;1697526;81;21007;-78
2022/12/27 10:52:31;;;;;;;13.93;4.30;;;;;;;4.65;93.56;98785.80;1741476;81;21837;-78
2022/12/27 10:54:58;;;;;;;6.80;2.30;;;;;;;4.64;92.86;98785.51;1763462;79;21043;-80
2022/12/27 10:57:33;;;;;;;7.80;2.15;;;;;;;4.63;92.11;98790.58;1757360;79;20986;-78
2022/12/27 11:00:19;;;;;;;6.42;2.12;;;;;;;4.62;92.06;98788.13;1756877;80;21440;-78
2022/12/27 11:02:53;;;;;;;7.62;2.37;;;;;;;4.59;91.42;98788.02;1739282;80;21114;-80
2022/12/27 11:05:24;;;;;;;15.05;4.75;;;;;;;4.48;89.84;98778.03;1743078;80;21495;-77
2022/12/27 11:07:51;;;;;;;9.65;3.62;;;;;;;4.55;90.61;98777.45;1745196;81;21558;-80
2022/12/27 11:10:22;;;;;;;8.85;3.10;;;;;;;4.60;91.01;98775.42;1739252;81;21007;-78
2022/12/27 11:13:04;;;;;;;8.93;2.80;;;;;;;4.68;90.84;98782.66;1739032;81;21084;-80
2022/12/27 11:15:35;;;;;;;10.85;3.80;;;;;;;4.74;90.19;98779.61;1745332;80;21090;-80
2022/12/27 11:18:10;;;;;;;5.37;2.70;;;;;;;4.79;90.06;98776.57;1743201;81;21857;-78
2022/12/27 11:20:43;;;;;;;7.92;3.02;;;;;;;4.87;90.07;98773.27;1741732;81;21143;-78
2022/12/27 11:23:13;;;;;;;13.90;4.87;;;;;;;4.89;90.79;98769.84;1745546;81;21095;-78
2022/12/27 11:25:52;;;;;;;8.43;2.67;;;;;;;4.93;89.16;98778.56;1728064;81;21058;-80
2022/12/27 11:28:30;;;;;;;6.90;2.37;;;;;;;4.90;88.64;98778.20;1754547;81;26958;-80
2022/12/27 11:31:04;;;;;;;6.93;2.20;;;;;;;4.87;86.33;98778.14;1737431;81;21725;-80
2022/12/27 11:33:38;;;;;;;7.97;2.33;;;;;;;4.87;87.86;98778.14;1740497;81;21496;-78
2022/12/27 11:36:09;;;;;;;7.35;3.10;;;;;;;4.92;87.46;98774.23;1764207;80;21171;-80
2022/12/27 11:38:37;;;;;;;5.33;1.98;;;;;;;4.97;88.86;98769.55;1741471;80;21169;-80
2022/12/27 11:41:32;;;;;;;17.32;6.00;;;;;;;5.00;87.20;98769.91;1741295;81;20996;-79
2022/12/27 11:44:24;;;;;;;5.55;2.35;;;;;;;5.00;88.21;98765.87;1735967;81;21668;-78
2022/12/27 11:47:11;;;;;;;7.78;3.40;;;;;;;5.01;87.03;98759.98;1741619;81;21454;-80
2022/12/27 11:49:52;;;;;;;5.65;2.70;;;;;;;5.04;86.89;98763.55;1738010;81;21035;-78
2022/12/27 11:52:59;;;;;;;5.03;2.55;;;;;;;5.05;86.06;98762.00;1747605;80;21027;-80
2022/12/27 11:55:58;;;;;;;4.33;2.08;;;;;;;5.12;86.40;98753.84;1749555;81;21086;-80
2022/12/27 11:58:40;;;;;;;3.92;2.12;;;;;;;5.20;85.93;98757.55;1740122;80;21608;-80
2022/12/27 12:01:36;;;;;;;4.03;1.70;;;;;;;5.30;84.01;98767.79;1741417;80;21062;-80
2022/12/27 12:04:30;;;;;;;5.22;2.10;;;;;;;5.28;84.58;98765.30;1737279;80;21031;-78
2022/12/27 12:07:38;;;;;;;7.85;2.92;;;;;;;5.26;82.21;98768.75;1752375;80;21488;-80
2022/12/27 12:10:44;;;;;;;7.35;1.75;;;;;;;5.20;81.61;98769.64;1755672;80;21016;-80
2022/12/27 12:13:40;;;;;;;5.92;2.80;;;;;;;5.24;81.10;98775.41;1739252;81;21161;-78
2022/12/27 12:16:27;;;;;;;6.33;2.15;;;;;;;5.32;80.86;98771.88;1742917;81;20968;-80
2022/12/27 12:19:36;;;;;;;6.40;2.72;;;;;;;5.33;81.63;98773.52;1725003;80;22140;-78
2022/12/27 12:22:41;;;;;;;7.45;2.27;;;;;;;5.44;79.30;98776.47;1739976;81;21138;-78
2022/12/27 12:25:47;;;;;;;3.35;1.95;;;;;;;5.42;78.11;98778.05;1743527;80;21534;-78
2022/12/27 12:28:51;;;;;;;4.40;1.52;;;;;;;5.45;80.11;98776.23;1739060;81;21003;-78
2022/12/27 12:31:53;;;;;;;7.62;1.65;;;;;;;5.48;79.20;98784.39;1741886;80;21046;-78
2022/12/27 12:34:37;;;;;;;3.90;1.40;;;;;;;5.47;80.58;98781.37;1744765;81;21035;-78
2022/12/27 12:37:36;;;;;;;5.12;2.22;;;;;;;5.55;80.67;98789.94;1754870;80;21027;-78
2022/12/27 12:40:21;;;;;;;;;;;;;;;5.42;76.22;98782.61;1757543;80;21043;-78
2022/12/27 12:43:18;;;;;;;2.72;1.65;;;;;;;5.50;78.70;98789.83;1733917;81;20970;-80
2022/12/27 12:45:56;;;;;;;10.85;5.70;;;;;;;5.54;80.89;98792.34;1742501;81;21562;-78
2022/12/27 12:48:53;;;;;;;16.15;8.30;;;;;;;5.54;81.69;98783.45;1738940;80;21080;-78
2022/12/27 12:51:54;;;;;;;5.05;2.45;;;;;;;5.52;80.61;98785.03;1746278;80;21008;-80
2022/12/27 12:54:54;;;;;;;7.60;3.85;;;;;;;5.52;81.15;98782.34;1755861;80;21706;-78
2022/12/27 12:57:54;;;;;;;10.68;5.22;;;;;;;5.47;81.03;98780.04;1738428;81;21023;-78
2022/12/27 13:00:45;;;;;;;12.63;6.67;;;;;;;5.48;80.57;98785.73;1740603;80;21038;-78
2022/12/27 13:04:08;;;;;;;13.90;7.70;;;;;;;5.43;80.53;98784.24;1732481;81;21552;-78
2022/12/27 13:07:18;;;;;;;4.95;3.58;;;;;;;5.42;80.90;98783.95;1750287;80;21461;-80
2022/12/27 13:10:17;;;;;;;26.25;14.70;;;;;;;5.38;80.56;98791.14;1738574;80;21105;-78
2022/12/27 13:12:52;;;;;;;13.80;8.60;;;;;;;5.36;80.41;98787.02;1742825;81;21446;-80
2022/12/27 13:15:47;;;;;;;58.90;29.63;;;;;;;5.32;78.43;98779.13;1751953;80;21078;-80
2022/12/27 13:18:32;;;;;;;16.35;9.75;;;;;;;5.19;79.12;98784.66;1726512;80;21047;-80
2022/12/27 13:21:17;;;;;;;74.70;40.35;;;;;;;5.12;78.50;98781.23;1737052;80;21004;-80
2022/12/27 13:24:24;;;;;;;34.50;19.07;;;;;;;5.07;79.12;98782.73;1737636;81;21448;-80
2022/12/27 13:27:18;;;;;;;43.48;30.85;;;;;;;5.06;80.29;98788.34;1736782;81;21915;-78
2022/12/27 13:29:56;;;;;;;11.70;8.68;;;;;;;5.07;81.16;98788.64;1741768;81;21011;-78
2022/12/27 13:32:28;;;;;;;5.37;3.83;;;;;;;5.10;80.98;98792.20;1750539;81;21550;-78
2022/12/27 13:35:36;;;;;;;10.18;5.83;;;;;;;5.15;80.83;98796.91;1743061;80;21019;-80
2022/12/27 13:38:38;;;;;;;17.05;8.20;;;;;;;5.08;81.44;98796.98;1743363;80;21083;-80
2022/12/27 13:41:16;;;;;;;32.10;14.90;;;;;;;5.04;81.62;98797.97;1735783;81;21692;-80
2022/12/27 13:44:07;;;;;;;42.58;19.82;;;;;;;5.01;81.79;98801.09;1739210;81;21016;-78
2022/12/27 13:47:03;;;;;;;74.55;31.90;;;;;;;4.99;82.50;98801.03;1740089;80;21011;-78